Time;durP1;ratioP1;P1;durP2;ratioP2;P2;SDS_P1;SDS_P2;PMS_P1;PMS_P2;Temp;Humidity;BMP_temperature;BMP_pressure;BME280_temperature;BME280_humidity;BME280_pressure;Samples;Min_cycle;Max_cycle;Signal;HPM_P1;HPM_P2
2022/10/20 00:00:50;;;;;;;10.33;6.73;;;;;;;;;;5051425;28;20405;-47
2022/10/20 00:03:16;;;;;;;12.23;6.20;;;;;;;;;;5050486;28;20452;-44
2022/10/20 00:05:41;;;;;;;9.17;6.83;;;;;;;;;;5051552;28;20444;-46
2022/10/20 00:08:07;;;;;;;9.13;6.13;;;;;;;;;;5051402;28;20407;-45
2022/10/20 00:10:33;;;;;;;9.20;6.87;;;;;;;;;;5052140;28;20391;-44
2022/10/20 00:13:00;;;;;;;8.87;6.87;;;;;;;;;;5054920;28;20408;-46
2022/10/20 00:15:26;;;;;;;7.33;6.20;;;;;;;;;;5055552;28;20458;-46
2022/10/20 00:17:52;;;;;;;50.27;8.00;;;;;;;;;;5055691;28;20805;-44
2022/10/20 00:20:18;;;;;;;9.17;6.40;;;;;;;;;;5055653;28;20423;-46
2022/10/20 00:22:44;;;;;;;9.10;6.87;;;;;;;;;;5054747;28;20459;-42
2022/10/20 00:25:10;;;;;;;7.33;6.33;;;;;;;;;;5054912;28;20408;-44
2022/10/20 00:27:36;;;;;;;8.97;6.93;;;;;;;;;;5055535;28;20436;-45
2022/10/20 00:30:02;;;;;;;8.97;6.47;;;;;;;;;;5055055;28;20436;-47
2022/10/20 00:32:31;;;;;;;9.77;6.80;;;;;;;;;;5055054;28;20417;-46
2022/10/20 00:34:57;;;;;;;6.57;5.70;;;;;;;;;;5054602;28;20415;-46
2022/10/20 00:37:23;;;;;;;10.93;6.83;;;;;;;;;;5055224;28;20412;-44
2022/10/20 00:39:49;;;;;;;7.30;6.60;;;;;;;;;;5054969;28;20427;-44
2022/10/20 00:42:16;;;;;;;8.90;6.80;;;;;;;;;;5054451;28;20505;-44
2022/10/20 00:44:53;;;;;;;9.77;6.90;;;;;;;;;;5054385;28;20887;-45
2022/10/20 00:47:21;;;;;;;17.40;7.00;;;;;;;;;;5055148;28;20489;-46
2022/10/20 00:49:48;;;;;;;9.47;7.20;;;;;;;;;;5054958;28;20419;-45
2022/10/20 00:52:15;;;;;;;13.03;7.70;;;;;;;;;;5054446;28;20454;-46
2022/10/20 00:54:41;;;;;;;8.53;6.90;;;;;;;;;;5054101;28;20916;-46
2022/10/20 00:57:07;;;;;;;9.93;7.87;;;;;;;;;;5054478;28;20416;-46
2022/10/20 00:59:35;;;;;;;9.30;7.00;;;;;;;;;;5054661;28;20429;-46
2022/10/20 01:02:01;;;;;;;19.53;8.60;;;;;;;;;;5053537;28;20407;-44
2022/10/20 01:04:29;;;;;;;13.60;7.30;;;;;;;;;;5052467;28;20459;-46
2022/10/20 01:06:55;;;;;;;11.47;7.40;;;;;;;;;;5053260;28;20407;-45
2022/10/20 01:09:21;;;;;;;10.87;7.20;;;;;;;;;;5053180;28;20436;-44
2022/10/20 01:12:02;;;;;;;8.80;7.60;;;;;;;;;;5053090;28;20438;-44
2022/10/20 01:14:34;;;;;;;10.90;7.27;;;;;;;;;;5052469;28;20428;-46
2022/10/20 01:17:13;;;;;;;9.00;7.13;;;;;;;;;;5053231;28;20410;-46
2022/10/20 01:19:58;;;;;;;9.60;7.90;;;;;;;;;;5053123;28;20431;-44
2022/10/20 01:22:39;;;;;;;15.37;7.20;;;;;;;;;;5052240;28;20410;-44
2022/10/20 01:25:14;;;;;;;11.50;7.10;;;;;;;;;;5052469;28;20415;-46
2022/10/20 01:27:45;;;;;;;13.07;7.90;;;;;;;;;;5052772;28;20476;-43
2022/10/20 01:30:13;;;;;;;12.60;8.07;;;;;;;;;;5052862;28;20955;-46
2022/10/20 01:32:53;;;;;;;9.80;6.87;;;;;;;;;;5052556;28;20500;-47
2022/10/20 01:35:26;;;;;;;13.70;6.87;;;;;;;;;;5052494;28;20411;-44
2022/10/20 01:38:11;;;;;;;9.57;7.70;;;;;;;;;;5052756;28;20789;-46
2022/10/20 01:40:46;;;;;;;11.53;7.20;;;;;;;;;;5052836;28;20414;-45
2022/10/20 01:43:14;;;;;;;14.33;6.87;;;;;;;;;;5052340;28;20462;-44
2022/10/20 01:45:43;;;;;;;8.77;7.27;;;;;;;;;;5052951;28;20403;-46
2022/10/20 01:48:10;;;;;;;12.90;8.20;;;;;;;;;;5052772;28;20411;-46
2022/10/20 01:50:38;;;;;;;16.03;9.30;;;;;;;;;;5052655;28;20907;-44
2022/10/20 01:53:04;;;;;;;13.80;8.67;;;;;;;;;;5051987;28;20421;-46
2022/10/20 01:55:30;;;;;;;10.57;8.50;;;;;;;;;;5052167;28;20447;-46
2022/10/20 01:58:14;;;;;;;13.07;10.30;;;;;;;;;;5052736;28;20907;-46
2022/10/20 02:00:41;;;;;;;10.23;6.83;;;;;;;;;;5052784;28;20629;-46
2022/10/20 02:03:19;;;;;;;18.63;8.23;;;;;;;;;;5044236;28;210279;-44
2022/10/20 02:06:09;;;;;;;12.17;7.93;;;;;;;;;;5052699;28;20427;-46
2022/10/20 02:08:38;;;;;;;9.10;7.70;;;;;;;;;;5053330;28;20915;-43
2022/10/20 02:11:05;;;;;;;14.00;9.50;;;;;;;;;;5033900;28;20464;-44
2022/10/20 02:13:34;;;;;;;17.07;7.77;;;;;;;;;;5032379;28;20412;-44
2022/10/20 02:16:02;;;;;;;8.70;7.80;;;;;;;;;;5052892;28;20412;-43
2022/10/20 02:18:31;;;;;;;11.60;8.00;;;;;;;;;;5053343;28;20423;-46
2022/10/20 02:20:58;;;;;;;11.93;8.10;;;;;;;;;;5053160;28;20409;-45
2022/10/20 02:23:24;;;;;;;12.73;7.67;;;;;;;;;;5052170;28;20478;-44
2022/10/20 02:25:52;;;;;;;10.37;8.30;;;;;;;;;;5053096;28;20418;-46
2022/10/20 02:28:19;;;;;;;13.20;8.20;;;;;;;;;;5052957;28;20409;-45
2022/10/20 02:30:46;;;;;;;9.70;8.00;;;;;;;;;;5053386;28;20415;-44
2022/10/20 02:33:12;;;;;;;12.30;8.20;;;;;;;;;;5051757;28;20907;-44
2022/10/20 02:35:41;;;;;;;13.17;8.67;;;;;;;;;;5052413;28;20439;-46
2022/10/20 02:38:07;;;;;;;14.20;7.43;;;;;;;;;;5052892;28;20499;-44
2022/10/20 02:40:33;;;;;;;18.40;9.20;;;;;;;;;;5052849;28;20507;-44
2022/10/20 02:42:59;;;;;;;10.30;8.33;;;;;;;;;;5052242;28;20446;-46
2022/10/20 02:45:25;;;;;;;19.60;8.17;;;;;;;;;;5052009;28;20412;-45
2022/10/20 02:47:51;;;;;;;12.53;7.83;;;;;;;;;;5052411;28;20438;-45
2022/10/20 02:50:17;;;;;;;11.70;7.70;;;;;;;;;;5064246;28;20425;-44
2022/10/20 02:52:43;;;;;;;15.70;8.37;;;;;;;;;;5072499;28;20409;-44
2022/10/20 02:55:09;;;;;;;13.17;8.37;;;;;;;;;;5071692;28;20417;-44
2022/10/20 02:57:35;;;;;;;12.70;8.40;;;;;;;;;;5072508;28;20396;-46
2022/10/20 03:00:01;;;;;;;13.67;7.63;;;;;;;;;;5071935;28;20867;-44
2022/10/20 03:02:27;;;;;;;13.97;8.77;;;;;;;;;;5072100;28;20396;-44
2022/10/20 03:04:53;;;;;;;12.90;8.30;;;;;;;;;;5071209;28;20414;-46
2022/10/20 03:07:19;;;;;;;15.47;8.30;;;;;;;;;;5072326;28;20411;-46
2022/10/20 03:09:45;;;;;;;12.90;7.97;;;;;;;;;;5071976;28;20513;-47
2022/10/20 03:12:11;;;;;;;11.80;7.50;;;;;;;;;;5071983;28;20405;-44
2022/10/20 03:14:37;;;;;;;14.50;9.33;;;;;;;;;;5071058;28;20440;-45
2022/10/20 03:17:03;;;;;;;11.87;8.33;;;;;;;;;;5072149;28;20491;-46
2022/10/20 03:19:29;;;;;;;12.10;8.57;;;;;;;;;;5071706;28;20509;-45
2022/10/20 03:21:54;;;;;;;11.80;7.90;;;;;;;;;;5071890;28;20893;-45
2022/10/20 03:24:20;;;;;;;12.43;8.57;;;;;;;;;;5070975;28;20540;-44
2022/10/20 03:26:46;;;;;;;19.80;9.83;;;;;;;;;;5072013;28;20459;-45
2022/10/20 03:29:12;;;;;;;12.83;8.37;;;;;;;;;;5071948;28;20426;-45
2022/10/20 03:31:38;;;;;;;12.73;8.53;;;;;;;;;;5071811;28;20493;-45
2022/10/20 03:34:04;;;;;;;15.50;9.40;;;;;;;;;;5071543;28;20422;-45
2022/10/20 03:36:30;;;;;;;15.73;9.40;;;;;;;;;;5071551;28;20468;-47
2022/10/20 03:38:56;;;;;;;14.20;9.40;;;;;;;;;;5071964;28;20437;-44
2022/10/20 03:41:22;;;;;;;13.00;8.73;;;;;;;;;;5071481;28;20500;-44
2022/10/20 03:43:48;;;;;;;17.17;9.60;;;;;;;;;;5070890;28;20458;-44
2022/10/20 03:46:14;;;;;;;11.20;9.00;;;;;;;;;;5071147;28;20461;-45
2022/10/20 03:48:40;;;;;;;11.87;7.70;;;;;;;;;;5071926;28;20430;-46
2022/10/20 03:51:07;;;;;;;10.47;8.20;;;;;;;;;;5071524;28;20408;-46
2022/10/20 03:53:33;;;;;;;9.33;8.03;;;;;;;;;;5070902;28;20417;-46
2022/10/20 03:56:04;;;;;;;12.27;8.93;;;;;;;;;;5071118;28;20491;-47
2022/10/20 03:58:30;;;;;;;9.53;7.00;;;;;;;;;;5071606;28;20427;-44
2022/10/20 04:00:57;;;;;;;11.30;8.37;;;;;;;;;;5071525;28;20415;-46
2022/10/20 04:03:23;;;;;;;13.30;8.93;;;;;;;;;;5070979;28;21001;-46
2022/10/20 04:05:49;;;;;;;9.60;7.77;;;;;;;;;;5070804;28;20406;-46
2022/10/20 04:08:15;;;;;;;10.80;7.40;;;;;;;;;;5071514;28;20396;-46
2022/10/20 04:10:41;;;;;;;12.33;8.50;;;;;;;;;;5071148;28;20410;-46
2022/10/20 04:13:07;;;;;;;9.77;7.83;;;;;;;;;;5071170;28;20406;-44
2022/10/20 04:15:33;;;;;;;11.80;8.97;;;;;;;;;;5070616;28;20404;-44
2022/10/20 04:17:59;;;;;;;11.57;8.17;;;;;;;;;;5071636;28;20763;-46
2022/10/20 04:20:25;;;;;;;11.57;7.97;;;;;;;;;;5071215;28;20421;-44
2022/10/20 04:22:50;;;;;;;9.37;7.30;;;;;;;;;;5071267;28;20864;-44
2022/10/20 04:25:17;;;;;;;13.50;7.60;;;;;;;;;;5070482;28;20406;-45
2022/10/20 04:27:43;;;;;;;13.63;7.57;;;;;;;;;;5071332;28;20484;-46
2022/10/20 04:30:09;;;;;;;11.80;8.40;;;;;;;;;;5071042;28;20454;-46
2022/10/20 04:32:35;;;;;;;13.77;8.63;;;;;;;;;;5071451;28;20402;-48
2022/10/20 04:35:01;;;;;;;12.13;7.40;;;;;;;;;;5070417;28;20413;-46
2022/10/20 04:37:27;;;;;;;13.47;8.00;;;;;;;;;;5071033;28;20517;-46
2022/10/20 04:39:53;;;;;;;8.10;7.10;;;;;;;;;;5070760;28;20427;-45
2022/10/20 04:42:19;;;;;;;10.47;8.20;;;;;;;;;;5071051;28;20890;-45
2022/10/20 04:44:45;;;;;;;9.70;8.27;;;;;;;;;;5070312;28;20498;-46
2022/10/20 04:47:11;;;;;;;9.77;8.50;;;;;;;;;;5071166;28;20441;-46
2022/10/20 04:49:38;;;;;;;12.13;8.37;;;;;;;;;;5071027;28;20919;-45
2022/10/20 04:52:04;;;;;;;9.47;7.90;;;;;;;;;;5070790;28;20803;-46
2022/10/20 04:54:30;;;;;;;9.83;8.77;;;;;;;;;;5070342;28;20585;-47
2022/10/20 04:56:56;;;;;;;12.50;8.53;;;;;;;;;;5071794;28;20399;-46
2022/10/20 04:59:22;;;;;;;9.23;7.40;;;;;;;;;;5074634;28;20919;-46
2022/10/20 05:01:48;;;;;;;13.90;8.20;;;;;;;;;;5074817;28;20388;-43
2022/10/20 05:04:20;;;;;;;8.73;7.20;;;;;;;;;;5074351;28;20494;-43
2022/10/20 05:06:46;;;;;;;10.13;7.63;;;;;;;;;;5074595;28;20891;-43
2022/10/20 05:09:13;;;;;;;13.90;8.07;;;;;;;;;;5074334;28;20420;-44
2022/10/20 05:11:39;;;;;;;10.60;7.53;;;;;;;;;;5074139;28;20756;-43
2022/10/20 05:14:06;;;;;;;10.40;7.03;;;;;;;;;;5074038;28;20405;-43
2022/10/20 05:16:32;;;;;;;11.40;7.43;;;;;;;;;;5073963;28;20415;-43
2022/10/20 05:18:58;;;;;;;9.63;7.10;;;;;;;;;;5074289;28;20515;-43
2022/10/20 05:21:25;;;;;;;8.70;6.97;;;;;;;;;;5074081;28;20428;-44
2022/10/20 05:24:01;;;;;;;13.90;7.83;;;;;;;;;;5073407;28;20554;-43
2022/10/20 05:26:33;;;;;;;15.10;8.40;;;;;;;;;;5073822;28;20404;-43
2022/10/20 05:29:01;;;;;;;20.90;11.63;;;;;;;;;;5074182;28;20514;-43
2022/10/20 05:31:27;;;;;;;12.03;7.97;;;;;;;;;;5073928;28;20449;-43
2022/10/20 05:33:55;;;;;;;7.20;6.50;;;;;;;;;;5073257;28;20443;-43
2022/10/20 05:36:22;;;;;;;10.83;7.70;;;;;;;;;;5074109;28;20420;-43
2022/10/20 05:38:50;;;;;;;11.07;7.03;;;;;;;;;;5073740;28;20431;-43
2022/10/20 05:41:17;;;;;;;9.87;7.60;;;;;;;;;;5073703;28;20416;-43
2022/10/20 05:43:47;;;;;;;9.33;7.40;;;;;;;;;;5073098;28;20448;-43
2022/10/20 05:46:13;;;;;;;10.03;7.73;;;;;;;;;;5073567;28;20408;-44
2022/10/20 05:48:39;;;;;;;10.40;7.83;;;;;;;;;;5073446;28;20935;-43
2022/10/20 05:51:08;;;;;;;15.63;7.23;;;;;;;;;;5073593;28;20777;-43
2022/10/20 05:53:34;;;;;;;9.90;7.20;;;;;;;;;;5072137;28;20427;-43
2022/10/20 05:56:04;;;;;;;14.40;8.10;;;;;;;;;;5073372;28;20443;-43
2022/10/20 05:58:30;;;;;;;11.80;7.20;;;;;;;;;;5072555;28;20450;-43
2022/10/20 06:01:05;;;;;;;10.30;8.43;;;;;;;;;;5072652;28;20422;-43
2022/10/20 06:03:31;;;;;;;14.03;7.80;;;;;;;;;;5072208;28;20466;-43
2022/10/20 06:05:58;;;;;;;12.57;7.77;;;;;;;;;;5072600;28;20764;-43
2022/10/20 06:08:24;;;;;;;13.70;8.07;;;;;;;;;;5071484;28;20416;-43
2022/10/20 06:10:50;;;;;;;9.83;6.77;;;;;;;;;;5072827;28;20483;-43
2022/10/20 06:13:15;;;;;;;10.47;5.90;;;;;;;;;;5062691;28;20421;-43
2022/10/20 06:15:41;;;;;;;10.73;6.87;;;;;;;;;;5056284;28;20955;-43
2022/10/20 06:18:07;;;;;;;8.53;6.80;;;;;;;;;;5073175;28;20408;-43
2022/10/20 06:20:33;;;;;;;12.43;6.93;;;;;;;;;;5072955;28;20397;-43
2022/10/20 06:22:59;;;;;;;8.47;6.00;;;;;;;;;;5072970;28;20550;-43
2022/10/20 06:25:25;;;;;;;11.30;7.53;;;;;;;;;;5072554;28;20422;-43
2022/10/20 06:27:51;;;;;;;11.57;8.00;;;;;;;;;;5072835;28;20423;-43
2022/10/20 06:30:17;;;;;;;15.63;9.03;;;;;;;;;;5072872;28;20494;-43
2022/10/20 06:32:43;;;;;;;13.33;6.93;;;;;;;;;;5072552;28;20415;-43
2022/10/20 06:35:09;;;;;;;12.70;6.50;;;;;;;;;;5072539;28;20408;-43
2022/10/20 06:37:35;;;;;;;7.10;6.40;;;;;;;;;;5072672;28;20404;-43
2022/10/20 06:40:01;;;;;;;10.13;7.30;;;;;;;;;;5072761;28;20463;-43
2022/10/20 06:42:27;;;;;;;7.80;5.93;;;;;;;;;;5071952;28;20430;-43
2022/10/20 06:44:54;;;;;;;12.47;7.00;;;;;;;;;;5071968;28;20939;-44
2022/10/20 06:47:20;;;;;;;12.50;8.50;;;;;;;;;;5072787;28;20746;-43
2022/10/20 06:49:48;;;;;;;11.13;7.80;;;;;;;;;;5051070;28;20445;-43
2022/10/20 06:52:14;;;;;;;8.77;7.63;;;;;;;;;;5051616;28;20422;-43
2022/10/20 06:54:39;;;;;;;9.00;7.53;;;;;;;;;;5051695;28;20418;-43
2022/10/20 06:57:05;;;;;;;11.33;8.13;;;;;;;;;;5052591;28;20441;-44
2022/10/20 06:59:31;;;;;;;9.20;7.20;;;;;;;;;;5051988;28;20933;-43
2022/10/20 07:01:57;;;;;;;16.13;7.27;;;;;;;;;;5052401;28;20474;-43
2022/10/20 07:04:23;;;;;;;8.90;7.43;;;;;;;;;;5051663;28;20958;-43
2022/10/20 07:06:49;;;;;;;7.73;6.60;;;;;;;;;;5052437;28;20417;-43
2022/10/20 07:09:17;;;;;;;8.17;7.10;;;;;;;;;;5051973;28;20458;-43
2022/10/20 07:11:43;;;;;;;8.13;6.80;;;;;;;;;;5052433;28;20906;-43
2022/10/20 07:14:10;;;;;;;10.53;7.10;;;;;;;;;;5051428;28;20411;-43
2022/10/20 07:16:36;;;;;;;10.80;7.57;;;;;;;;;;5052216;28;20499;-43
2022/10/20 07:19:03;;;;;;;10.03;6.60;;;;;;;;;;5051639;28;20868;-43
2022/10/20 07:21:30;;;;;;;9.47;6.70;;;;;;;;;;5052012;28;20410;-43
2022/10/20 07:23:56;;;;;;;8.03;6.50;;;;;;;;;;5051248;28;20448;-43
2022/10/20 07:26:23;;;;;;;9.77;7.10;;;;;;;;;;5051974;28;20477;-44
2022/10/20 07:28:50;;;;;;;8.87;6.23;;;;;;;;;;5051462;28;20486;-43
2022/10/20 07:31:21;;;;;;;8.73;6.57;;;;;;;;;;5052135;28;20477;-43
2022/10/20 07:33:47;;;;;;;9.90;6.93;;;;;;;;;;5044550;28;20420;-43
2022/10/20 07:36:13;;;;;;;8.97;6.57;;;;;;;;;;5050741;28;20418;-43
2022/10/20 07:38:39;;;;;;;7.73;6.50;;;;;;;;;;5050730;28;20489;-45
2022/10/20 07:41:07;;;;;;;10.50;7.90;;;;;;;;;;5051075;28;20438;-45
2022/10/20 07:43:34;;;;;;;7.40;6.53;;;;;;;;;;5050722;28;20460;-44
2022/10/20 07:46:00;;;;;;;10.33;7.33;;;;;;;;;;5052836;28;20525;-44
2022/10/20 07:48:25;;;;;;;10.63;6.17;;;;;;;;;;5071609;28;20510;-44
2022/10/20 07:50:51;;;;;;;10.90;6.80;;;;;;;;;;5071641;28;20416;-44
2022/10/20 07:53:18;;;;;;;7.13;6.00;;;;;;;;;;5071024;28;20418;-43
2022/10/20 07:55:44;;;;;;;8.87;6.53;;;;;;;;;;5071139;28;20888;-43
2022/10/20 07:58:10;;;;;;;8.37;6.73;;;;;;;;;;5071314;28;20894;-44
2022/10/20 08:00:37;;;;;;;7.20;6.50;;;;;;;;;;5071333;28;20429;-43
2022/10/20 08:03:03;;;;;;;7.00;6.30;;;;;;;;;;5065678;28;20435;-43
2022/10/20 08:05:29;;;;;;;9.33;6.00;;;;;;;;;;5051266;28;20383;-43
2022/10/20 08:07:55;;;;;;;7.90;6.13;;;;;;;;;;5067328;28;20387;-43
2022/10/20 08:10:21;;;;;;;7.20;5.83;;;;;;;;;;5071247;28;20393;-43
2022/10/20 08:12:47;;;;;;;9.07;6.90;;;;;;;;;;5070964;28;20507;-44
2022/10/20 08:15:13;;;;;;;7.90;6.23;;;;;;;;;;5070816;28;20401;-43
2022/10/20 08:17:39;;;;;;;8.60;6.70;;;;;;;;;;5060306;28;20934;-43
2022/10/20 08:20:05;;;;;;;9.70;8.20;;;;;;;;;;5050479;28;20518;-48
2022/10/20 08:22:31;;;;;;;10.10;6.07;;;;;;;;;;5050970;28;20385;-46
2022/10/20 08:24:57;;;;;;;7.43;6.67;;;;;;;;;;5050543;28;20947;-47
2022/10/20 08:27:23;;;;;;;6.40;5.80;;;;;;;;;;5051556;28;20742;-46
2022/10/20 08:29:49;;;;;;;9.70;5.73;;;;;;;;;;5051127;28;20470;-44
2022/10/20 08:32:15;;;;;;;8.37;6.20;;;;;;;;;;5052935;28;20467;-45
2022/10/20 08:34:41;;;;;;;11.20;6.03;;;;;;;;;;5054543;28;20391;-45
2022/10/20 08:37:07;;;;;;;6.30;5.70;;;;;;;;;;5055064;28;20487;-46
2022/10/20 08:39:33;;;;;;;6.73;5.13;;;;;;;;;;5054594;28;20544;-46
2022/10/20 08:41:59;;;;;;;9.23;6.53;;;;;;;;;;5054862;28;20394;-46
2022/10/20 08:44:26;;;;;;;7.60;5.90;;;;;;;;;;5054272;28;20445;-42
2022/10/20 08:46:53;;;;;;;7.97;5.30;;;;;;;;;;5054851;28;20472;-43
2022/10/20 08:49:24;;;;;;;11.73;6.70;;;;;;;;;;5054818;28;20391;-42
2022/10/20 08:51:50;;;;;;;7.57;6.70;;;;;;;;;;5054224;28;20404;-42
2022/10/20 08:54:16;;;;;;;7.27;6.57;;;;;;;;;;5054228;28;20390;-42
2022/10/20 08:56:43;;;;;;;6.60;6.00;;;;;;;;;;5054600;28;20469;-42
2022/10/20 08:59:28;;;;;;;8.17;5.90;;;;;;;;;;5054491;28;20584;-42
2022/10/20 09:01:54;;;;;;;8.40;6.20;;;;;;;;;;5051498;28;20731;-47
2022/10/20 09:04:20;;;;;;;7.27;6.57;;;;;;;;;;5045338;28;20472;-47
2022/10/20 09:06:47;;;;;;;11.10;6.47;;;;;;;;;;5038235;28;20380;-44
2022/10/20 09:09:16;;;;;;;7.20;6.50;;;;;;;;;;5054453;28;20753;-47
2022/10/20 09:11:43;;;;;;;8.10;6.03;;;;;;;;;;5053889;28;20382;-48
2022/10/20 09:14:10;;;;;;;6.90;6.20;;;;;;;;;;5050626;28;20829;-44
2022/10/20 09:16:39;;;;;;;6.67;5.97;;;;;;;;;;5054118;28;20397;-43
2022/10/20 09:19:06;;;;;;;6.80;6.07;;;;;;;;;;5053973;28;20800;-44
2022/10/20 09:21:33;;;;;;;8.20;6.10;;;;;;;;;;5054108;28;20384;-43
2022/10/20 09:24:04;;;;;;;6.63;5.60;;;;;;;;;;5053572;28;20460;-44
2022/10/20 09:26:30;;;;;;;6.83;6.23;;;;;;;;;;5054089;28;20397;-44
2022/10/20 09:29:16;;;;;;;9.23;5.57;;;;;;;;;;5053820;28;20470;-44
2022/10/20 09:31:44;;;;;;;10.20;6.20;;;;;;;;;;5053537;28;20503;-44
2022/10/20 09:34:27;;;;;;;7.90;5.30;;;;;;;;;;5053413;28;20505;-44
2022/10/20 09:36:57;;;;;;;10.10;5.17;;;;;;;;;;5053954;28;20388;-44
2022/10/20 09:39:26;;;;;;;7.93;6.23;;;;;;;;;;5053849;28;20956;-44
2022/10/20 09:41:59;;;;;;;8.87;5.30;;;;;;;;;;5053293;28;20873;-43
2022/10/20 09:44:25;;;;;;;6.23;5.57;;;;;;;;;;5052982;28;20817;-44
2022/10/20 09:46:52;;;;;;;7.93;6.10;;;;;;;;;;5053628;28;20408;-43
2022/10/20 09:49:31;;;;;;;8.23;7.10;;;;;;;;;;5053665;28;20505;-44
2022/10/20 09:51:59;;;;;;;7.13;5.10;;;;;;;;;;5053716;28;20380;-43
2022/10/20 09:54:25;;;;;;;8.50;5.90;;;;;;;;;;5053303;28;20384;-44
2022/10/20 09:56:52;;;;;;;9.83;7.13;;;;;;;;;;5053695;28;20475;-43
2022/10/20 09:59:32;;;;;;;7.67;5.53;;;;;;;;;;5053371;28;20501;-43
2022/10/20 10:02:03;;;;;;;9.43;7.50;;;;;;;;;;5053272;28;20903;-43
2022/10/20 10:04:36;;;;;;;7.27;5.93;;;;;;;;;;5052667;28;20466;-44
2022/10/20 10:07:03;;;;;;;7.53;6.60;;;;;;;;;;5053416;28;20412;-43
2022/10/20 10:09:34;;;;;;;10.10;6.57;;;;;;;;;;5053488;28;20419;-43
2022/10/20 10:12:16;;;;;;;10.40;6.17;;;;;;;;;;5052628;28;20382;-43
2022/10/20 10:14:54;;;;;;;6.97;6.27;;;;;;;;;;5051624;28;20375;-43
2022/10/20 10:17:29;;;;;;;12.37;6.63;;;;;;;;;;5053321;28;20702;-43
2022/10/20 10:19:55;;;;;;;8.83;6.20;;;;;;;;;;5053269;28;20454;-43
2022/10/20 10:22:21;;;;;;;8.57;5.33;;;;;;;;;;5052949;28;20550;-43
2022/10/20 10:24:48;;;;;;;7.73;6.07;;;;;;;;;;5052680;28;20475;-43
2022/10/20 10:27:40;;;;;;;7.20;6.30;;;;;;;;;;5053218;28;20373;-42
2022/10/20 10:30:22;;;;;;;10.50;6.70;;;;;;;;;;5052027;28;20471;-43
2022/10/20 10:32:47;;;;;;;10.80;6.90;;;;;;;;;;5052645;28;20866;-43
2022/10/20 10:35:33;;;;;;;7.77;6.97;;;;;;;;;;5052399;28;20388;-43
2022/10/20 10:37:59;;;;;;;9.97;7.07;;;;;;;;;;5053685;28;20386;-43
2022/10/20 10:40:45;;;;;;;9.93;5.67;;;;;;;;;;5053149;28;20927;-42
2022/10/20 10:43:11;;;;;;;11.83;7.63;;;;;;;;;;5070719;28;20420;-43
2022/10/20 10:45:37;;;;;;;6.90;6.20;;;;;;;;;;5072201;28;20381;-43
2022/10/20 10:48:27;;;;;;;7.70;6.47;;;;;;;;;;5072561;28;20382;-43
2022/10/20 10:51:04;;;;;;;10.33;6.93;;;;;;;;;;5069620;28;20393;-43
2022/10/20 10:53:36;;;;;;;8.83;6.77;;;;;;;;;;5059695;28;20838;-43
2022/10/20 10:56:28;;;;;;;7.03;5.90;;;;;;;;;;5051414;28;20413;-43
2022/10/20 10:58:59;;;;;;;10.27;6.47;;;;;;;;;;5051048;28;20939;-42
2022/10/20 11:01:38;;;;;;;9.33;6.60;;;;;;;;;;5052536;28;20381;-43
2022/10/20 11:04:07;;;;;;;6.13;5.63;;;;;;;;;;5051505;28;20493;-43
2022/10/20 11:06:48;;;;;;;11.30;6.47;;;;;;;;;;5053266;28;20411;-45
2022/10/20 11:09:28;;;;;;;10.23;6.57;;;;;;;;;;5052636;28;20507;-44
2022/10/20 11:11:54;;;;;;;8.93;6.13;;;;;;;;;;5052971;28;20391;-46
2022/10/20 11:14:32;;;;;;;12.40;7.27;;;;;;;;;;5052058;28;20413;-48
2022/10/20 11:16:58;;;;;;;9.57;7.10;;;;;;;;;;5053855;28;20845;-44
2022/10/20 11:19:53;;;;;;;12.90;7.10;;;;;;;;;;5054216;28;20465;-46
2022/10/20 11:22:35;;;;;;;8.23;5.70;;;;;;;;;;5048636;28;20836;-44
2022/10/20 11:25:07;;;;;;;9.90;6.50;;;;;;;;;;5045547;28;20563;-45
2022/10/20 11:27:34;;;;;;;7.00;5.87;;;;;;;;;;5052091;28;20406;-46
2022/10/20 11:30:06;;;;;;;9.73;5.93;;;;;;;;;;5051961;28;20449;-45
2022/10/20 11:32:44;;;;;;;10.63;7.70;;;;;;;;;;5051320;28;20378;-45
2022/10/20 11:35:19;;;;;;;16.23;8.27;;;;;;;;;;5044703;28;20412;-46
2022/10/20 11:37:49;;;;;;;12.77;6.73;;;;;;;;;;5047401;28;20894;-45
2022/10/20 11:40:27;;;;;;;9.23;7.80;;;;;;;;;;5050887;28;20507;-46
2022/10/20 11:43:12;;;;;;;12.00;6.50;;;;;;;;;;5051414;28;20516;-45
2022/10/20 11:45:55;;;;;;;9.10;6.20;;;;;;;;;;5050360;28;20371;-45
2022/10/20 11:48:25;;;;;;;9.43;7.40;;;;;;;;;;5051756;28;20901;-45
2022/10/20 11:51:00;;;;;;;12.03;6.40;;;;;;;;;;5051047;28;20926;-46
2022/10/20 11:53:26;;;;;;;9.40;6.83;;;;;;;;;;5051286;28;20421;-44
2022/10/20 11:56:11;;;;;;;10.23;7.60;;;;;;;;;;5051255;28;20902;-44
2022/10/20 11:58:49;;;;;;;11.87;7.43;;;;;;;;;;5052032;28;20408;-45
2022/10/20 12:01:38;;;;;;;17.07;8.27;;;;;;;;;;5052583;28;20804;-47
2022/10/20 12:04:17;;;;;;;9.93;7.60;;;;;;;;;;5028499;28;20479;-45
2022/10/20 12:06:43;;;;;;;9.93;6.90;;;;;;;;;;5036655;28;20541;-44
2022/10/20 12:09:34;;;;;;;9.17;7.30;;;;;;;;;;5055928;28;20980;-45
2022/10/20 12:12:03;;;;;;;10.27;7.53;;;;;;;;;;5056219;28;20381;-45
2022/10/20 12:14:38;;;;;;;10.90;6.90;;;;;;;;;;5055480;28;20392;-45
2022/10/20 12:17:23;;;;;;;12.80;7.37;;;;;;;;;;5056211;28;20929;-45
2022/10/20 12:19:50;;;;;;;22.80;8.20;;;;;;;;;;5055919;28;20401;-46
2022/10/20 12:22:16;;;;;;;8.90;7.67;;;;;;;;;;5056603;28;20397;-45
2022/10/20 12:24:42;;;;;;;13.50;8.07;;;;;;;;;;5055419;28;20929;-47
2022/10/20 12:27:08;;;;;;;12.63;7.77;;;;;;;;;;5056161;28;20380;-45
2022/10/20 12:29:34;;;;;;;11.97;8.17;;;;;;;;;;5056645;28;20488;-45
2022/10/20 12:32:20;;;;;;;20.83;9.27;;;;;;;;;;5056718;28;20438;-45
2022/10/20 12:34:46;;;;;;;10.30;9.03;;;;;;;;;;5054588;28;20410;-45
2022/10/20 12:37:15;;;;;;;16.00;9.60;;;;;;;;;;5056264;28;20432;-46
2022/10/20 12:39:41;;;;;;;14.07;8.70;;;;;;;;;;5055210;28;20418;-47
2022/10/20 12:42:18;;;;;;;9.63;8.63;;;;;;;;;;5045995;28;20405;-45
2022/10/20 12:44:45;;;;;;;10.53;8.97;;;;;;;;;;5055205;28;20456;-46
2022/10/20 12:47:37;;;;;;;9.70;8.63;;;;;;;;;;5056609;28;20427;-45
2022/10/20 12:50:06;;;;;;;11.67;9.63;;;;;;;;;;5054228;28;20448;-45
2022/10/20 12:52:37;;;;;;;10.07;8.30;;;;;;;;;;5055915;28;20405;-45
2022/10/20 12:55:05;;;;;;;12.33;9.20;;;;;;;;;;5055327;28;20471;-44
2022/10/20 12:57:40;;;;;;;10.77;8.33;;;;;;;;;;5053762;28;20451;-44
2022/10/20 13:00:07;;;;;;;13.10;9.87;;;;;;;;;;5055604;28;20450;-45
2022/10/20 13:02:43;;;;;;;12.83;10.47;;;;;;;;;;5056374;28;20382;-45
2022/10/20 13:05:12;;;;;;;12.00;8.83;;;;;;;;;;5055888;28;20824;-45
2022/10/20 13:07:47;;;;;;;10.70;9.57;;;;;;;;;;5056542;28;20785;-45
2022/10/20 13:10:28;;;;;;;11.87;8.67;;;;;;;;;;5056734;28;20383;-46
2022/10/20 13:13:01;;;;;;;12.20;9.70;;;;;;;;;;5056134;28;20404;-45
2022/10/20 13:15:36;;;;;;;11.80;9.10;;;;;;;;;;5055071;28;20376;-45
2022/10/20 13:18:06;;;;;;;12.63;9.57;;;;;;;;;;5055791;28;20393;-43
2022/10/20 13:20:51;;;;;;;13.17;9.63;;;;;;;;;;5054519;28;20484;-46
2022/10/20 13:23:37;;;;;;;20.33;9.70;;;;;;;;;;5055172;28;20475;-45
2022/10/20 13:26:17;;;;;;;18.00;10.10;;;;;;;;;;5054866;28;20470;-45
2022/10/20 13:28:45;;;;;;;13.60;9.97;;;;;;;;;;5055505;28;20421;-44
2022/10/20 13:31:25;;;;;;;12.00;9.10;;;;;;;;;;5055675;28;20902;-45
2022/10/20 13:34:10;;;;;;;16.60;9.87;;;;;;;;;;5054971;28;20727;-45
2022/10/20 13:36:51;;;;;;;10.40;9.23;;;;;;;;;;5054945;28;20392;-45
2022/10/20 13:39:17;;;;;;;17.50;11.07;;;;;;;;;;5054896;28;20443;-46
2022/10/20 13:41:50;;;;;;;13.03;9.20;;;;;;;;;;5054256;28;20417;-45
2022/10/20 13:44:16;;;;;;;11.50;9.57;;;;;;;;;;5054575;28;20465;-47
2022/10/20 13:47:06;;;;;;;10.60;8.80;;;;;;;;;;5054682;28;20402;-47
2022/10/20 13:49:51;;;;;;;14.47;8.73;;;;;;;;;;5054568;28;20428;-46
2022/10/20 13:52:17;;;;;;;9.83;8.83;;;;;;;;;;5054573;28;20378;-45
2022/10/20 13:54:45;;;;;;;12.13;9.20;;;;;;;;;;5054285;28;20382;-45
2022/10/20 13:57:24;;;;;;;16.00;9.13;;;;;;;;;;5055085;28;20374;-47
2022/10/20 13:59:54;;;;;;;19.43;9.63;;;;;;;;;;5055062;28;20476;-47
2022/10/20 14:02:22;;;;;;;10.93;9.93;;;;;;;;;;5054775;28;20392;-45
2022/10/20 14:05:00;;;;;;;12.83;9.77;;;;;;;;;;5054006;28;20467;-44
2022/10/20 14:07:35;;;;;;;12.63;8.77;;;;;;;;;;5054530;28;20724;-46
2022/10/20 14:10:02;;;;;;;10.30;8.90;;;;;;;;;;5054524;28;20427;-46
2022/10/20 14:12:28;;;;;;;12.80;9.47;;;;;;;;;;5054928;28;20401;-45
2022/10/20 14:14:58;;;;;;;12.80;8.33;;;;;;;;;;5054316;28;20768;-46
2022/10/20 14:17:25;;;;;;;14.90;9.63;;;;;;;;;;5054374;28;20772;-45
2022/10/20 14:19:51;;;;;;;10.27;8.67;;;;;;;;;;5054255;28;20435;-45
2022/10/20 14:22:21;;;;;;;11.50;8.60;;;;;;;;;;5054322;28;20386;-45
2022/10/20 14:24:49;;;;;;;10.93;9.60;;;;;;;;;;5053745;28;20479;-45
2022/10/20 14:27:18;;;;;;;15.27;9.40;;;;;;;;;;5053892;28;20434;-44
2022/10/20 14:29:44;;;;;;;10.97;9.00;;;;;;;;;;5052380;28;20486;-45
2022/10/20 14:32:15;;;;;;;13.80;9.10;;;;;;;;;;5053110;28;20405;-46
2022/10/20 14:34:52;;;;;;;10.57;7.90;;;;;;;;;;5052496;28;20379;-44
2022/10/20 14:37:24;;;;;;;8.73;7.67;;;;;;;;;;5052933;28;20868;-46
2022/10/20 14:39:50;;;;;;;14.40;7.60;;;;;;;;;;5053059;28;20772;-45
2022/10/20 14:42:23;;;;;;;18.20;6.90;;;;;;;;;;5053223;28;20413;-45
2022/10/20 14:44:50;;;;;;;8.83;6.90;;;;;;;;;;5053309;28;20457;-48
2022/10/20 14:47:16;;;;;;;9.93;7.00;;;;;;;;;;5053657;28;20419;-48
2022/10/20 14:49:45;;;;;;;10.97;6.70;;;;;;;;;;5054925;28;20418;-46